Time;durP1;ratioP1;P1;durP2;ratioP2;P2;SDS_P1;SDS_P2;PMS_P1;PMS_P2;Temp;Humidity;BMP_temperature;BMP_pressure;BME280_temperature;BME280_humidity;BME280_pressure;Samples;Min_cycle;Max_cycle;Signal;HPM_P1;HPM_P2
2021/09/03 00:00:11;;;;;;;25.08;15.40;;;13.60;99.90;;;;;;4952847;28;20047;-70
2021/09/03 00:02:38;;;;;;;28.23;14.70;;;13.60;99.90;;;;;;4953578;29;20027;-70
2021/09/03 00:05:06;;;;;;;27.30;14.98;;;13.50;99.90;;;;;;4956191;28;20481;-70
2021/09/03 00:07:31;;;;;;;29.13;16.60;;;13.50;99.90;;;;;;4954335;28;20035;-70
2021/09/03 00:09:57;;;;;;;26.00;14.45;;;13.50;99.90;;;;;;4947089;28;20034;-72
2021/09/03 00:12:23;;;;;;;27.23;16.23;;;13.50;99.90;;;;;;4950230;28;20031;-71
2021/09/03 00:14:48;;;;;;;24.98;16.15;;;13.50;99.90;;;;;;4951653;28;20030;-71
2021/09/03 00:17:14;;;;;;;29.23;15.55;;;13.50;99.90;;;;;;4952417;28;20470;-71
2021/09/03 00:19:40;;;;;;;23.70;14.27;;;13.40;99.90;;;;;;4951925;28;20039;-71
2021/09/03 00:22:05;;;;;;;28.05;16.20;;;13.40;99.90;;;;;;4949272;28;20086;-71
2021/09/03 00:24:31;;;;;;;27.83;16.38;;;13.40;99.90;;;;;;4952043;28;20043;-70
2021/09/03 00:26:56;;;;;;;24.40;15.85;;;13.40;99.90;;;;;;4951618;28;20090;-70
2021/09/03 00:29:22;;;;;;;26.85;16.08;;;13.30;99.90;;;;;;4953538;28;20039;-71
2021/09/03 00:31:47;;;;;;;28.02;16.05;;;13.30;99.90;;;;;;4951848;28;20031;-70
2021/09/03 00:34:13;;;;;;;29.75;17.50;;;13.30;99.90;;;;;;4951051;28;20680;-70
2021/09/03 00:36:39;;;;;;;30.48;17.85;;;13.30;99.90;;;;;;4953269;28;20371;-71
2021/09/03 00:39:05;;;;;;;30.23;17.38;;;13.30;99.90;;;;;;4952188;28;20103;-71
2021/09/03 00:41:30;;;;;;;27.98;17.05;;;13.30;99.90;;;;;;4948604;28;20035;-70
2021/09/03 00:43:56;;;;;;;31.15;17.73;;;13.30;99.90;;;;;;4951841;28;20138;-71
2021/09/03 00:46:21;;;;;;;29.73;17.80;;;13.30;99.90;;;;;;4966206;28;20038;-70
2021/09/03 00:48:47;;;;;;;29.90;16.77;;;13.30;99.90;;;;;;4953398;28;20525;-70
2021/09/03 00:51:12;;;;;;;26.48;16.63;;;13.30;99.90;;;;;;4951810;28;20027;-70
2021/09/03 00:53:38;;;;;;;27.83;16.95;;;13.20;99.90;;;;;;4950122;28;20023;-71
2021/09/03 00:56:05;;;;;;;30.73;17.35;;;13.20;99.90;;;;;;4950363;28;20030;-71
2021/09/03 00:58:30;;;;;;;30.52;17.52;;;13.30;99.90;;;;;;4952961;28;20031;-71
2021/09/03 01:00:56;;;;;;;29.17;16.95;;;13.30;99.90;;;;;;4950987;28;20055;-70
2021/09/03 01:03:21;;;;;;;32.13;17.58;;;13.30;99.90;;;;;;4949462;28;20031;-71
2021/09/03 01:05:47;;;;;;;32.83;17.20;;;13.30;99.90;;;;;;4952294;28;20027;-71
2021/09/03 01:08:13;;;;;;;29.80;17.65;;;13.20;99.90;;;;;;4964201;28;20035;-71
2021/09/03 01:10:39;;;;;;;34.05;17.88;;;13.20;99.90;;;;;;4946831;28;20045;-70
2021/09/03 01:13:05;;;;;;;25.98;16.08;;;13.20;99.90;;;;;;4948661;28;20023;-71
2021/09/03 01:15:30;;;;;;;33.65;18.73;;;13.20;99.90;;;;;;4950807;28;20073;-70
2021/09/03 01:17:56;;;;;;;31.73;18.80;;;13.20;99.90;;;;;;4952577;28;20074;-70
2021/09/03 01:20:22;;;;;;;30.42;17.60;;;13.20;99.90;;;;;;4949368;28;20285;-70
2021/09/03 01:22:47;;;;;;;38.03;19.08;;;13.10;99.90;;;;;;4951865;29;20035;-70
2021/09/03 01:25:15;;;;;;;30.95;17.17;;;13.10;99.90;;;;;;4948617;28;20042;-71
2021/09/03 01:27:41;;;;;;;33.83;18.38;;;13.10;99.90;;;;;;4949031;28;20086;-70
2021/09/03 01:30:10;;;;;;;30.90;17.25;;;13.10;99.90;;;;;;4967125;28;20046;-70
2021/09/03 01:32:36;;;;;;;31.48;18.30;;;13.00;99.90;;;;;;4951749;28;20033;-71
2021/09/03 01:35:02;;;;;;;32.65;18.25;;;13.00;99.90;;;;;;4953676;28;20123;-70
2021/09/03 01:37:28;;;;;;;29.95;17.90;;;13.00;99.90;;;;;;4951294;28;20499;-70
2021/09/03 01:39:53;;;;;;;28.08;17.55;;;13.00;99.90;;;;;;4946617;28;20102;-70
2021/09/03 01:42:19;;;;;;;38.63;19.50;;;13.00;99.90;;;;;;4949147;28;20482;-71
2021/09/03 01:44:44;;;;;;;34.70;18.95;;;13.00;99.90;;;;;;4953439;28;20548;-70
2021/09/03 01:47:10;;;;;;;33.00;18.00;;;13.00;99.90;;;;;;4946547;28;20083;-71
2021/09/03 01:49:35;;;;;;;34.60;19.15;;;12.90;99.90;;;;;;4952238;28;20031;-70
2021/09/03 01:52:01;;;;;;;37.85;18.60;;;12.90;99.90;;;;;;4950592;28;20149;-71
2021/09/03 01:54:27;;;;;;;29.48;17.42;;;12.80;99.90;;;;;;4950373;28;20029;-71
2021/09/03 01:56:52;;;;;;;31.67;18.88;;;12.80;99.90;;;;;;4950473;28;20031;-70
2021/09/03 01:59:17;;;;;;;40.05;19.92;;;12.80;99.90;;;;;;4950477;28;20047;-70
2021/09/03 02:01:43;;;;;;;38.05;19.25;;;12.80;99.90;;;;;;4950512;28;20050;-71
2021/09/03 02:04:08;;;;;;;31.10;17.65;;;12.80;99.90;;;;;;4953093;28;20046;-71
2021/09/03 02:06:34;;;;;;;33.45;20.48;;;12.70;99.90;;;;;;4949721;28;20085;-70
2021/09/03 02:08:59;;;;;;;32.70;18.58;;;12.80;99.90;;;;;;4948426;28;20093;-70
2021/09/03 02:11:25;;;;;;;38.95;18.52;;;12.70;99.90;;;;;;4949597;28;20027;-70
2021/09/03 02:13:51;;;;;;;38.85;20.75;;;12.70;99.90;;;;;;4954441;28;20394;-71
2021/09/03 02:16:16;;;;;;;32.97;19.08;;;12.70;99.90;;;;;;4956973;28;20042;-70
2021/09/03 02:18:42;;;;;;;32.20;19.05;;;12.70;99.90;;;;;;4954741;28;20027;-71
2021/09/03 02:21:07;;;;;;;42.83;21.50;;;12.60;99.90;;;;;;4956356;28;20035;-70
2021/09/03 02:23:33;;;;;;;32.50;18.67;;;12.60;99.90;;;;;;4956270;28;20174;-70
2021/09/03 02:25:59;;;;;;;38.50;20.85;;;12.60;99.90;;;;;;4954285;28;20070;-70
2021/09/03 02:28:25;;;;;;;36.35;20.35;;;12.60;99.90;;;;;;4952456;28;20370;-70
2021/09/03 02:30:50;;;;;;;38.88;20.42;;;12.60;99.90;;;;;;4953746;28;20034;-70
2021/09/03 02:33:16;;;;;;;35.85;19.77;;;12.60;99.90;;;;;;4955273;28;20027;-70
2021/09/03 02:35:42;;;;;;;38.58;20.73;;;12.60;99.90;;;;;;4956063;28;20102;-70
2021/09/03 02:38:11;;;;;;;36.65;20.27;;;12.60;99.90;;;;;;4955754;28;20031;-70
2021/09/03 02:40:37;;;;;;;32.92;20.35;;;12.50;99.90;;;;;;4952580;28;20054;-70
2021/09/03 02:43:03;;;;;;;45.47;21.05;;;12.50;99.90;;;;;;4953171;28;20035;-70
2021/09/03 02:45:28;;;;;;;38.05;20.67;;;12.50;99.90;;;;;;4953211;28;20444;-70
2021/09/03 02:47:54;;;;;;;38.05;21.05;;;12.50;99.90;;;;;;4954863;28;20031;-70
2021/09/03 02:50:20;;;;;;;42.22;22.35;;;12.50;99.90;;;;;;4953671;28;20047;-70
2021/09/03 02:52:45;;;;;;;48.65;23.98;;;12.50;99.90;;;;;;4956635;28;20062;-70
2021/09/03 02:55:11;;;;;;;42.63;22.75;;;12.50;99.90;;;;;;4953242;28;20054;-70
2021/09/03 02:57:37;;;;;;;39.60;22.42;;;12.50;99.90;;;;;;4951483;28;20090;-70
2021/09/03 03:00:05;;;;;;;38.90;22.88;;;12.50;99.90;;;;;;4953071;28;20051;-71
2021/09/03 03:02:30;;;;;;;38.78;22.75;;;12.50;99.90;;;;;;4955500;28;20551;-71
2021/09/03 03:04:56;;;;;;;37.33;22.40;;;12.50;99.90;;;;;;4953886;28;20046;-70
2021/09/03 03:07:21;;;;;;;41.17;23.15;;;12.50;99.90;;;;;;4952797;28;20028;-70
2021/09/03 03:09:47;;;;;;;38.67;22.73;;;12.50;99.90;;;;;;4950455;28;20565;-71
2021/09/03 03:12:12;;;;;;;43.45;22.83;;;12.50;99.90;;;;;;4950221;28;20442;-70
2021/09/03 03:14:38;;;;;;;42.08;21.88;;;12.40;99.90;;;;;;4955740;28;20027;-71
2021/09/03 03:17:04;;;;;;;49.58;24.00;;;12.50;99.90;;;;;;4952159;28;20146;-71
2021/09/03 03:19:30;;;;;;;44.92;24.85;;;12.40;99.90;;;;;;4952917;28;20363;-70
2021/09/03 03:21:57;;;;;;;44.15;25.23;;;12.40;99.90;;;;;;4953362;28;20118;-70
2021/09/03 03:24:23;;;;;;;46.40;25.05;;;12.40;99.90;;;;;;4952104;28;20039;-71
2021/09/03 03:26:49;;;;;;;43.00;23.85;;;12.50;99.90;;;;;;4952198;28;20172;-71
2021/09/03 03:29:15;;;;;;;38.83;22.75;;;12.40;99.90;;;;;;4950945;28;20045;-70
2021/09/03 03:31:40;;;;;;;48.22;26.40;;;12.40;99.90;;;;;;4953696;28;20438;-71
2021/09/03 03:34:07;;;;;;;46.55;25.58;;;12.40;99.90;;;;;;4954443;28;20027;-70
2021/09/03 03:36:32;;;;;;;45.92;24.63;;;12.40;99.90;;;;;;4948362;28;20067;-71
2021/09/03 03:38:58;;;;;;;53.10;26.65;;;12.40;99.90;;;;;;4950677;28;20441;-70
2021/09/03 03:41:23;;;;;;;50.22;28.42;;;12.40;99.90;;;;;;4950272;28;20058;-70
2021/09/03 03:43:49;;;;;;;48.55;28.02;;;12.40;99.90;;;;;;4953110;28;20110;-71
2021/09/03 03:46:15;;;;;;;45.67;26.88;;;12.40;99.90;;;;;;4954718;28;20109;-70
2021/09/03 03:48:40;;;;;;;45.92;25.83;;;12.40;99.90;;;;;;4951649;28;20039;-71
2021/09/03 03:51:06;;;;;;;42.83;25.20;;;12.40;99.90;;;;;;4949742;28;20039;-70
2021/09/03 03:53:32;;;;;;;51.33;26.92;;;12.40;99.90;;;;;;4953400;28;20386;-71
2021/09/03 03:55:58;;;;;;;51.97;27.58;;;12.40;99.90;;;;;;4953715;28;20042;-70
2021/09/03 03:58:23;;;;;;;53.75;29.67;;;12.40;99.90;;;;;;4953705;28;20475;-70
2021/09/03 04:00:49;;;;;;;43.50;26.40;;;12.40;99.90;;;;;;4946514;28;20047;-70
2021/09/03 04:03:14;;;;;;;48.55;27.83;;;12.40;99.90;;;;;;4953056;28;20027;-70
2021/09/03 04:05:40;;;;;;;45.35;26.15;;;12.40;99.90;;;;;;4953226;28;20028;-71
2021/09/03 04:08:06;;;;;;;56.08;28.90;;;12.40;99.90;;;;;;4950033;28;20427;-70
2021/09/03 04:10:32;;;;;;;49.15;28.77;;;12.40;99.90;;;;;;4949869;28;20050;-71
2021/09/03 04:12:57;;;;;;;52.25;28.75;;;12.40;99.90;;;;;;4954212;28;20031;-71
2021/09/03 04:15:23;;;;;;;46.33;26.98;;;12.40;99.90;;;;;;4951947;28;20474;-71
2021/09/03 04:17:49;;;;;;;47.50;29.45;;;12.40;99.90;;;;;;4951984;28;20391;-70
2021/09/03 04:20:14;;;;;;;52.00;28.15;;;12.40;99.90;;;;;;4950238;28;20075;-70
2021/09/03 04:22:40;;;;;;;50.10;27.40;;;12.40;99.90;;;;;;4952979;28;20032;-71
2021/09/03 04:25:06;;;;;;;60.50;29.00;;;12.30;99.90;;;;;;4948476;28;20161;-71
2021/09/03 04:27:33;;;;;;;54.95;28.88;;;12.30;99.90;;;;;;4951997;28;20031;-71
2021/09/03 04:29:58;;;;;;;54.13;28.70;;;12.30;99.90;;;;;;4954010;28;20261;-71
2021/09/03 04:32:24;;;;;;;49.78;27.20;;;12.20;99.90;;;;;;4951199;28;20054;-71
2021/09/03 04:34:49;;;;;;;52.20;27.80;;;12.20;99.90;;;;;;4953527;28;20501;-71
2021/09/03 04:37:14;;;;;;;46.92;27.88;;;12.10;99.90;;;;;;4952150;28;20027;-70
2021/09/03 04:39:40;;;;;;;49.75;27.48;;;12.10;99.90;;;;;;4951096;28;20046;-70
2021/09/03 04:42:06;;;;;;;49.88;27.88;;;12.10;99.90;;;;;;4946532;28;20429;-70
2021/09/03 04:44:32;;;;;;;55.45;27.73;;;12.10;99.90;;;;;;4949802;28;20060;-70
2021/09/03 04:46:57;;;;;;;51.30;27.73;;;12.10;99.90;;;;;;4951743;28;20094;-69
2021/09/03 04:49:23;;;;;;;55.08;28.98;;;12.10;99.90;;;;;;4939332;29;20046;-69
2021/09/03 04:51:48;;;;;;;54.38;30.63;;;12.10;99.90;;;;;;4953461;28;20031;-70
2021/09/03 04:54:14;;;;;;;52.85;29.15;;;12.10;99.90;;;;;;4963860;28;20030;-70
2021/09/03 04:56:40;;;;;;;49.70;29.52;;;12.10;99.90;;;;;;4959514;28;20035;-71
2021/09/03 04:59:05;;;;;;;54.83;29.98;;;12.00;99.90;;;;;;4950750;28;20027;-71
2021/09/03 05:01:34;;;;;;;54.55;28.92;;;12.10;99.90;;;;;;4951103;28;20378;-70
2021/09/03 05:04:00;;;;;;;54.17;29.35;;;12.00;99.90;;;;;;4946445;29;20046;-70
2021/09/03 05:06:26;;;;;;;57.53;30.45;;;12.10;99.90;;;;;;4949335;28;20063;-70
2021/09/03 05:08:52;;;;;;;65.78;30.48;;;12.10;99.90;;;;;;4951523;28;20473;-70
2021/09/03 05:11:19;;;;;;;58.60;30.08;;;12.10;99.90;;;;;;4952787;28;20019;-70
2021/09/03 05:13:45;;;;;;;55.40;29.27;;;12.10;99.90;;;;;;4956684;28;20357;-70
2021/09/03 05:16:11;;;;;;;60.03;30.60;;;12.00;99.90;;;;;;4965257;28;20110;-71
2021/09/03 05:18:36;;;;;;;55.63;28.60;;;12.00;99.90;;;;;;4952535;28;20095;-71
2021/09/03 05:21:03;;;;;;;58.13;30.35;;;12.10;99.90;;;;;;4945269;28;21065;-71
2021/09/03 05:23:28;;;;;;;61.17;34.20;;;12.10;99.90;;;;;;4948641;28;20729;-71
2021/09/03 05:25:54;;;;;;;57.03;33.13;;;12.10;99.90;;;;;;4946168;28;20020;-71
2021/09/03 05:28:19;;;;;;;55.65;29.10;;;12.10;99.90;;;;;;4954620;28;20047;-71
2021/09/03 05:30:45;;;;;;;62.10;31.30;;;12.20;99.90;;;;;;4961866;28;20418;-71
2021/09/03 05:33:10;;;;;;;56.00;29.17;;;12.20;99.90;;;;;;4944587;28;20035;-70
2021/09/03 05:35:36;;;;;;;65.78;34.20;;;12.20;99.90;;;;;;4952328;29;20069;-70
2021/09/03 05:38:04;;;;;;;68.65;36.08;;;12.20;99.90;;;;;;4949665;28;20026;-70
2021/09/03 05:40:31;;;;;;;56.78;31.75;;;12.30;99.90;;;;;;4947177;28;20118;-71
2021/09/03 05:42:57;;;;;;;58.78;31.33;;;12.30;99.90;;;;;;4944094;28;20047;-71
2021/09/03 05:45:22;;;;;;;64.60;34.63;;;12.40;99.90;;;;;;4939653;28;20171;-71
2021/09/03 05:47:48;;;;;;;62.95;34.45;;;12.40;99.90;;;;;;4944792;28;20238;-71
2021/09/03 05:50:15;;;;;;;69.57;35.58;;;12.50;99.90;;;;;;4943300;28;20049;-69
2021/09/03 05:52:41;;;;;;;63.53;34.83;;;12.50;99.90;;;;;;4943749;28;20020;-72
2021/09/03 05:55:07;;;;;;;73.93;36.85;;;12.60;99.90;;;;;;4947093;28;20106;-70
2021/09/03 05:57:33;;;;;;;66.80;35.33;;;12.60;99.90;;;;;;4944241;28;20052;-71
2021/09/03 05:59:59;;;;;;;68.25;34.95;;;12.70;99.90;;;;;;4944446;28;20055;-71
2021/09/03 06:02:25;;;;;;;64.28;33.95;;;12.70;99.90;;;;;;4939869;28;20066;-71
2021/09/03 06:04:51;;;;;;;68.65;36.05;;;12.80;99.90;;;;;;4942927;28;20039;-71
2021/09/03 06:07:17;;;;;;;62.40;32.58;;;12.80;99.90;;;;;;4941884;28;20061;-71
2021/09/03 06:09:42;;;;;;;58.17;32.90;;;12.90;99.90;;;;;;4942651;28;20046;-71
2021/09/03 06:12:08;;;;;;;64.18;33.53;;;12.90;99.90;;;;;;4957495;28;20032;-71
2021/09/03 06:14:34;;;;;;;62.88;35.63;;;13.00;99.90;;;;;;4943524;28;20241;-71
2021/09/03 06:16:59;;;;;;;64.25;36.33;;;13.00;99.90;;;;;;4943003;28;20028;-71
2021/09/03 06:19:25;;;;;;;60.40;35.47;;;13.10;99.90;;;;;;4949276;28;20115;-71
2021/09/03 06:21:51;;;;;;;62.00;34.15;;;13.20;99.90;;;;;;4945930;28;20059;-71
2021/09/03 06:24:32;;;;;;;60.90;33.65;;;13.20;99.90;;;;;;4939075;28;20031;-71
2021/09/03 06:27:03;;;;;;;65.15;36.25;;;13.30;99.90;;;;;;4947177;28;20477;-72
2021/09/03 06:29:39;;;;;;;59.58;33.28;;;13.40;99.90;;;;;;4946969;28;20379;-71
2021/09/03 06:32:16;;;;;;;70.13;39.03;;;13.40;99.90;;;;;;4946220;28;20062;-71
2021/09/03 06:34:46;;;;;;;58.55;33.53;;;13.50;99.90;;;;;;4945247;28;20387;-71
2021/09/03 06:37:12;;;;;;;66.20;37.63;;;13.60;99.90;;;;;;4952954;28;20082;-71
2021/09/03 06:39:38;;;;;;;62.03;34.53;;;13.70;99.90;;;;;;4959397;28;20088;-71
2021/09/03 06:42:05;;;;;;;65.35;35.35;;;13.80;99.90;;;;;;4949090;28;21076;-71
2021/09/03 06:44:31;;;;;;;57.70;34.97;;;13.80;99.90;;;;;;4947840;28;20031;-71
2021/09/03 06:46:57;;;;;;;63.53;38.08;;;14.00;99.90;;;;;;4953017;28;20486;-71
2021/09/03 06:49:22;;;;;;;55.88;33.35;;;14.10;99.90;;;;;;4949449;28;20446;-71
2021/09/03 06:51:48;;;;;;;60.15;36.03;;;14.10;99.90;;;;;;4952686;28;20030;-71
2021/09/03 06:54:14;;;;;;;61.85;33.80;;;14.20;99.90;;;;;;4952092;28;20050;-70
2021/09/03 06:56:39;;;;;;;61.30;35.42;;;14.30;99.90;;;;;;4951433;28;20027;-70
2021/09/03 06:59:05;;;;;;;66.32;36.92;;;14.40;99.90;;;;;;4948453;28;20030;-71
2021/09/03 07:01:31;;;;;;;56.60;35.03;;;14.50;99.90;;;;;;4953770;28;20114;-71
2021/09/03 07:03:56;;;;;;;64.22;34.65;;;14.50;99.90;;;;;;4953773;28;20430;-71
2021/09/03 07:06:22;;;;;;;54.78;33.50;;;14.60;99.90;;;;;;4954063;28;20278;-71
2021/09/03 07:08:47;;;;;;;57.33;32.80;;;14.70;99.90;;;;;;4949398;28;20455;-71
2021/09/03 07:11:13;;;;;;;51.88;32.70;;;14.80;99.90;;;;;;4952209;28;20509;-70
2021/09/03 07:13:39;;;;;;;53.55;31.45;;;14.90;99.90;;;;;;4950074;28;20035;-70
2021/09/03 07:16:07;;;;;;;54.47;33.58;;;15.00;99.90;;;;;;4954959;28;20034;-70
2021/09/03 07:18:33;;;;;;;51.25;33.65;;;15.20;99.90;;;;;;4954949;28;20035;-69
2021/09/03 07:20:58;;;;;;;50.97;30.92;;;15.20;99.90;;;;;;4955775;28;20031;-70
2021/09/03 07:23:24;;;;;;;49.40;31.10;;;15.30;99.90;;;;;;4953702;28;20023;-68
2021/09/03 07:25:49;;;;;;;49.33;29.55;;;15.50;99.90;;;;;;4954644;28;20035;-70
2021/09/03 07:28:15;;;;;;;45.63;29.77;;;15.50;99.90;;;;;;4956746;28;20378;-71
2021/09/03 07:30:41;;;;;;;46.10;28.38;;;15.60;99.90;;;;;;4949061;28;20023;-69
2021/09/03 07:33:06;;;;;;;44.80;29.00;;;15.60;99.90;;;;;;4946890;28;20031;-69
2021/09/03 07:35:32;;;;;;;42.47;27.70;;;15.70;99.90;;;;;;4963356;28;20109;-69
2021/09/03 07:37:58;;;;;;;38.85;25.85;;;15.80;99.90;;;;;;4953937;28;20038;-69
2021/09/03 07:40:25;;;;;;;39.90;25.92;;;15.90;99.90;;;;;;4952109;28;20042;-69
2021/09/03 07:42:51;;;;;;;43.78;26.13;;;16.10;99.90;;;;;;4960100;28;20114;-69
2021/09/03 07:45:16;;;;;;;37.67;25.38;;;16.20;99.90;;;;;;4947961;28;20130;-69
2021/09/03 07:47:42;;;;;;;36.53;23.73;;;16.30;99.90;;;;;;4947708;28;20442;-69
2021/09/03 07:50:08;;;;;;;39.58;25.73;;;16.40;99.90;;;;;;4947317;28;20576;-69
2021/09/03 07:52:33;;;;;;;32.72;21.80;;;16.50;99.90;;;;;;4948869;28;20035;-69
2021/09/03 07:54:59;;;;;;;33.50;23.42;;;16.60;99.90;;;;;;4948709;28;20150;-69
2021/09/03 07:57:24;;;;;;;36.40;22.85;;;16.70;99.90;;;;;;4946536;28;20027;-69
2021/09/03 07:59:50;;;;;;;32.17;22.33;;;16.80;99.90;;;;;;4946951;28;20395;-69
2021/09/03 08:02:16;;;;;;;35.20;22.92;;;16.90;99.90;;;;;;4947456;28;20034;-70
2021/09/03 08:04:41;;;;;;;39.55;23.40;;;17.00;99.90;;;;;;4949568;28;20194;-70
2021/09/03 08:07:07;;;;;;;32.22;21.30;;;17.00;99.90;;;;;;4947620;28;21475;-69
2021/09/03 08:09:33;;;;;;;35.72;24.00;;;17.10;99.90;;;;;;4947930;28;20070;-69
2021/09/03 08:11:58;;;;;;;34.83;22.13;;;17.20;99.90;;;;;;4948097;28;20082;-70
2021/09/03 08:14:25;;;;;;;36.50;22.20;;;17.30;99.90;;;;;;4961048;28;20054;-72
2021/09/03 08:16:52;;;;;;;31.40;22.13;;;17.30;99.90;;;;;;4947818;28;20020;-71
2021/09/03 08:19:20;;;;;;;36.47;22.05;;;17.50;99.90;;;;;;4948203;28;20019;-70
2021/09/03 08:21:46;;;;;;;26.90;18.73;;;17.50;99.90;;;;;;4946726;28;20050;-72
2021/09/03 08:24:12;;;;;;;32.88;20.42;;;17.60;99.90;;;;;;4948108;28;20401;-70
2021/09/03 08:26:44;;;;;;;29.38;19.50;;;17.70;99.90;;;;;;4949362;28;20163;-71
2021/09/03 08:29:10;;;;;;;30.17;20.65;;;17.80;99.50;;;;;;4948729;28;20078;-71
2021/09/03 08:31:36;;;;;;;31.83;19.38;;;17.90;99.30;;;;;;4949054;28;21873;-69
2021/09/03 08:34:06;;;;;;;27.23;18.95;;;18.00;99.30;;;;;;4947366;28;20487;-71
2021/09/03 08:36:32;;;;;;;25.92;18.52;;;18.00;99.10;;;;;;4948693;28;20030;-71
2021/09/03 08:38:58;;;;;;;24.95;18.10;;;18.10;98.90;;;;;;4946972;28;20035;-70
2021/09/03 08:41:25;;;;;;;28.80;20.17;;;18.20;98.80;;;;;;4947718;28;20363;-70
2021/09/03 08:43:59;;;;;;;25.05;18.73;;;18.40;98.70;;;;;;4947812;28;20046;-70
2021/09/03 08:46:25;;;;;;;26.17;19.15;;;18.50;98.30;;;;;;4946070;28;20027;-70
2021/09/03 08:48:50;;;;;;;28.40;18.40;;;18.60;98.40;;;;;;4947209;28;20147;-69
2021/09/03 08:51:16;;;;;;;28.05;19.27;;;18.70;98.50;;;;;;4947645;28;20030;-70
2021/09/03 08:53:42;;;;;;;27.25;19.30;;;18.90;98.00;;;;;;4946293;28;20066;-69
2021/09/03 08:56:07;;;;;;;25.27;18.40;;;18.90;97.50;;;;;;4946407;28;20126;-69
2021/09/03 08:58:33;;;;;;;23.27;16.27;;;19.00;97.50;;;;;;4945977;28;20019;-70
2021/09/03 09:01:10;;;;;;;21.85;16.27;;;19.10;97.60;;;;;;4947227;28;20051;-69
2021/09/03 09:03:44;;;;;;;23.75;16.38;;;19.30;97.40;;;;;;4948073;28;20051;-69
2021/09/03 09:06:17;;;;;;;27.02;17.27;;;19.30;96.80;;;;;;4946391;28;20050;-69
2021/09/03 09:08:42;;;;;;;23.65;15.02;;;19.40;96.70;;;;;;4945643;28;20035;-69
2021/09/03 09:11:13;;;;;;;23.85;16.13;;;19.50;96.40;;;;;;4945887;28;20030;-69
2021/09/03 09:13:41;;;;;;;24.02;15.90;;;19.60;95.70;;;;;;4946306;28;20031;-69
2021/09/03 09:16:14;;;;;;;20.55;13.52;;;19.60;95.60;;;;;;4946365;28;20222;-69
2021/09/03 09:18:48;;;;;;;21.65;14.77;;;19.70;95.50;;;;;;4947159;28;20125;-69
2021/09/03 09:21:30;;;;;;;19.23;13.30;;;19.70;95.60;;;;;;4945889;28;20440;-69
2021/09/03 09:24:00;;;;;;;19.90;14.00;;;19.80;95.30;;;;;;4953932;28;20023;-69
2021/09/03 09:26:42;;;;;;;20.92;14.45;;;19.90;95.20;;;;;;4956659;28;20043;-71
2021/09/03 09:29:37;;;;;;;20.63;13.17;;;20.00;94.80;;;;;;4951826;28;20644;-69
2021/09/03 09:32:05;;;;;;;16.48;13.30;;;20.10;94.90;;;;;;4945722;28;20318;-68
2021/09/03 09:34:36;;;;;;;21.20;13.02;;;20.20;94.20;;;;;;4944890;28;20074;-69
2021/09/03 09:37:05;;;;;;;19.48;13.95;;;20.20;93.90;;;;;;4947437;28;20082;-69
2021/09/03 09:39:51;;;;;;;17.75;13.30;;;20.20;93.80;;;;;;4945599;28;20035;-68
2021/09/03 09:42:21;;;;;;;16.52;11.50;;;20.30;93.40;;;;;;4948588;28;20023;-70
2021/09/03 09:45:00;;;;;;;15.23;10.57;;;20.30;93.90;;;;;;4945391;28;20035;-71
2021/09/03 09:47:25;;;;;;;15.70;10.50;;;20.40;93.70;;;;;;4945446;28;20046;-70
2021/09/03 09:49:51;;;;;;;19.48;11.15;;;20.60;93.40;;;;;;4946257;28;20051;-71
2021/09/03 09:52:35;;;;;;;17.48;11.85;;;20.60;92.90;;;;;;4940842;28;20148;-71
2021/09/03 09:55:02;;;;;;;16.23;11.10;;;20.60;92.50;;;;;;4944371;28;20027;-70
2021/09/03 09:57:33;;;;;;;17.60;10.75;;;20.70;92.30;;;;;;4962491;28;20038;-71
2021/09/03 10:00:03;;;;;;;14.88;9.77;;;20.70;92.10;;;;;;4944801;28;20051;-71
2021/09/03 10:02:29;;;;;;;16.20;10.07;;;20.80;92.20;;;;;;4959795;28;20035;-69
2021/09/03 10:04:57;;;;;;;14.18;10.35;;;20.90;92.00;;;;;;4946741;28;20035;-69
2021/09/03 10:07:24;;;;;;;16.13;10.98;;;21.00;91.60;;;;;;4945065;28;20067;-69
2021/09/03 10:09:50;;;;;;;15.70;10.27;;;21.00;91.30;;;;;;4945869;28;20035;-69
2021/09/03 10:12:15;;;;;;;16.40;10.80;;;21.10;91.20;;;;;;4949298;28;20026;-69
2021/09/03 10:14:42;;;;;;;16.05;11.38;;;21.10;90.60;;;;;;4949945;28;20031;-69
2021/09/03 10:17:11;;;;;;;14.02;9.23;;;21.10;90.60;;;;;;4949273;28;20033;-69
2021/09/03 10:19:38;;;;;;;19.52;11.85;;;21.20;90.70;;;;;;4949918;28;20098;-70
2021/09/03 10:22:09;;;;;;;18.35;11.07;;;21.20;90.40;;;;;;4952146;28;20039;-69
2021/09/03 10:24:36;;;;;;;16.63;10.88;;;21.30;90.40;;;;;;4948770;28;20046;-69
2021/09/03 10:27:03;;;;;;;15.38;8.82;;;21.30;90.30;;;;;;4943008;28;20035;-69
2021/09/03 10:29:37;;;;;;;13.98;9.13;;;21.40;90.70;;;;;;4949504;28;20038;-69
2021/09/03 10:32:08;;;;;;;13.15;9.95;;;21.60;90.50;;;;;;4947156;28;20028;-69
2021/09/03 10:35:00;;;;;;;15.80;10.65;;;21.70;90.40;;;;;;4948363;28;20024;-69
2021/09/03 10:37:35;;;;;;;17.77;10.38;;;21.80;90.40;;;;;;4955102;28;20039;-69
2021/09/03 10:40:05;;;;;;;12.73;9.93;;;21.90;90.10;;;;;;4954943;28;20031;-69
2021/09/03 10:45:02;;;;;;;15.75;11.55;;;21.90;89.80;;;;;;4952223;28;20043;-69
2021/09/03 10:47:47;;;;;;;14.10;10.00;;;21.90;89.80;;;;;;4953063;28;20054;-70
2021/09/03 10:50:32;;;;;;;15.98;12.18;;;22.00;90.00;;;;;;4952516;28;20031;-70
2021/09/03 10:53:04;;;;;;;16.00;10.35;;;22.10;89.20;;;;;;4948256;29;20023;-70
2021/09/03 10:55:57;;;;;;;18.33;11.52;;;22.10;90.00;;;;;;4955310;28;20078;-70
2021/09/03 10:58:54;;;;;;;15.05;11.10;;;22.30;89.10;;;;;;4959239;28;20038;-70
2021/09/03 11:01:25;;;;;;;16.45;11.05;;;22.30;88.40;;;;;;4953362;28;20047;-70
2021/09/03 11:03:58;;;;;;;16.23;11.30;;;22.20;87.60;;;;;;4948521;28;20510;-70
2021/09/03 11:06:27;;;;;;;16.20;10.13;;;22.20;87.80;;;;;;4950166;28;20552;-70
2021/09/03 11:09:23;;;;;;;14.15;10.18;;;22.30;88.30;;;;;;4959372;28;20046;-70
2021/09/03 11:12:02;;;;;;;14.40;8.93;;;22.40;88.30;;;;;;4949111;28;20027;-70
2021/09/03 11:14:29;;;;;;;16.02;10.52;;;22.50;88.20;;;;;;4949095;28;20061;-70
2021/09/03 11:17:01;;;;;;;19.92;12.13;;;22.60;87.40;;;;;;4951291;28;20027;-70
2021/09/03 11:19:32;;;;;;;19.45;12.18;;;22.60;87.50;;;;;;4969672;28;20054;-70
2021/09/03 11:22:05;;;;;;;17.77;12.05;;;22.60;87.00;;;;;;4954882;28;20038;-70
2021/09/03 11:24:39;;;;;;;16.23;11.48;;;22.70;86.70;;;;;;4946996;28;20027;-70
2021/09/03 11:27:08;;;;;;;15.48;11.35;;;22.70;86.60;;;;;;4949708;28;20038;-70
2021/09/03 11:29:45;;;;;;;14.63;10.38;;;22.80;86.40;;;;;;4959218;28;20042;-71
2021/09/03 11:32:16;;;;;;;16.20;10.82;;;22.90;86.40;;;;;;4952699;28;20113;-70
2021/09/03 11:34:52;;;;;;;17.37;10.63;;;22.90;85.20;;;;;;4950620;28;20662;-70
2021/09/03 11:37:25;;;;;;;13.98;9.23;;;22.90;85.40;;;;;;4950287;28;20059;-71
2021/09/03 11:39:54;;;;;;;17.65;9.80;;;22.90;84.90;;;;;;4943628;28;20031;-70
2021/09/03 11:42:24;;;;;;;15.52;10.75;;;22.90;84.20;;;;;;4949469;28;20154;-71
2021/09/03 11:45:05;;;;;;;18.98;11.63;;;22.90;84.60;;;;;;4960602;28;20086;-71
2021/09/03 11:47:38;;;;;;;14.65;9.25;;;23.00;83.60;;;;;;4946133;28;20027;-70
2021/09/03 11:50:11;;;;;;;16.35;10.10;;;23.00;83.80;;;;;;4944858;28;20078;-71
2021/09/03 11:52:37;;;;;;;18.05;10.18;;;23.00;83.40;;;;;;4946068;28;20370;-70
2021/09/03 11:55:05;;;;;;;16.30;10.07;;;23.00;83.30;;;;;;4947736;28;20042;-70
2021/09/03 11:57:52;;;;;;;16.75;10.77;;;23.20;83.80;;;;;;4947959;28;20023;-71
2021/09/03 12:00:20;;;;;;;14.82;9.32;;;23.30;83.20;;;;;;4946584;28;20134;-71
2021/09/03 12:02:46;;;;;;;13.65;9.00;;;23.30;83.10;;;;;;4947583;28;20714;-71
2021/09/03 12:05:12;;;;;;;16.05;9.90;;;23.40;82.70;;;;;;4947143;28;20082;-71
2021/09/03 12:07:37;;;;;;;14.85;9.57;;;23.40;81.80;;;;;;4945505;28;20043;-71
2021/09/03 12:10:03;;;;;;;12.65;9.02;;;23.40;82.10;;;;;;4946757;28;20037;-71
2021/09/03 12:12:29;;;;;;;15.20;9.45;;;23.40;81.10;;;;;;4954193;29;20485;-71
2021/09/03 12:14:58;;;;;;;12.90;8.38;;;23.40;80.30;;;;;;4943592;28;20035;-70
2021/09/03 12:17:44;;;;;;;11.43;7.80;;;23.40;80.40;;;;;;4956152;28;20109;-72
2021/09/03 12:20:15;;;;;;;13.82;7.40;;;23.40;81.10;;;;;;4947310;28;20078;-71
2021/09/03 12:22:47;;;;;;;16.50;7.33;;;23.50;80.80;;;;;;4950973;28;20167;-71
2021/09/03 12:25:13;;;;;;;10.35;7.22;;;23.60;80.80;;;;;;4953990;28;20054;-71
2021/09/03 12:27:39;;;;;;;8.65;7.22;;;23.80;80.50;;;;;;4951975;28;20066;-71
2021/09/03 12:30:12;;;;;;;11.43;9.27;;;23.90;79.30;;;;;;4947333;28;20038;-71
2021/09/03 12:32:38;;;;;;;11.70;8.75;;;23.80;78.40;;;;;;4948352;28;20035;-71